Time;durP1;ratioP1;P1;durP2;ratioP2;P2;SDS_P1;SDS_P2;PMS_P1;PMS_P2;Temp;Humidity;BMP_temperature;BMP_pressure;BME280_temperature;BME280_humidity;BME280_pressure;Samples;Min_cycle;Max_cycle;Signal;HPM_P1;HPM_P2
2021/06/23 00:00:55;;;;;;;0.07;0.07;;;15.00;99.90;;;;;;5060846;28;20039;-62
2021/06/23 00:03:23;;;;;;;0.00;0.00;;;15.00;99.90;;;;;;5073078;28;20448;-62
2021/06/23 00:05:49;;;;;;;0.00;0.00;;;15.00;99.90;;;;;;5071356;28;20043;-62
2021/06/23 00:08:15;;;;;;;0.00;0.00;;;15.00;99.90;;;;;;5071935;28;20028;-62
2021/06/23 00:10:40;;;;;;;0.00;0.00;;;15.00;99.90;;;;;;5073382;28;20047;-62
2021/06/23 00:13:08;;;;;;;0.10;0.10;;;15.00;99.90;;;;;;5071865;28;20083;-62
2021/06/23 00:15:34;;;;;;;0.00;0.00;;;15.00;99.90;;;;;;5074776;28;20025;-61
2021/06/23 00:18:01;;;;;;;0.60;0.60;;;15.00;99.90;;;;;;5072458;28;20040;-61
2021/06/23 00:20:29;;;;;;;0.00;0.00;;;15.00;99.90;;;;;;5073489;28;20359;-61
2021/06/23 00:22:55;;;;;;;0.00;0.00;;;15.00;99.90;;;;;;5072658;28;20028;-62
2021/06/23 00:25:21;;;;;;;0.00;0.00;;;15.00;99.90;;;;;;5070883;28;20043;-62
2021/06/23 00:27:52;;;;;;;0.10;0.10;;;15.00;99.90;;;;;;5072855;28;20033;-62
2021/06/23 00:30:19;;;;;;;0.00;0.00;;;15.00;99.90;;;;;;5054710;28;20036;-62
2021/06/23 00:32:48;;;;;;;0.10;0.10;;;15.00;99.90;;;;;;5055482;28;20040;-62
2021/06/23 00:35:16;;;;;;;0.10;0.10;;;15.00;99.90;;;;;;5072579;28;20425;-62
2021/06/23 00:37:47;;;;;;;0.03;0.03;;;15.00;99.90;;;;;;5073082;28;20045;-61
2021/06/23 00:40:16;;;;;;;0.10;0.10;;;15.10;99.90;;;;;;5053768;28;20498;-62
2021/06/23 00:42:43;;;;;;;0.10;0.10;;;15.10;99.90;;;;;;5072660;28;20096;-62
2021/06/23 00:45:11;;;;;;;0.10;0.10;;;15.10;99.90;;;;;;5072274;28;20023;-62
2021/06/23 00:47:40;;;;;;;0.00;0.00;;;15.10;99.90;;;;;;5071272;28;20051;-62
2021/06/23 00:50:07;;;;;;;0.10;0.10;;;15.20;99.90;;;;;;5072074;28;20038;-62
2021/06/23 00:52:34;;;;;;;0.10;0.10;;;15.20;99.90;;;;;;5041539;28;20246;-61
2021/06/23 00:55:00;;;;;;;0.00;0.00;;;15.20;99.90;;;;;;5073309;28;20113;-61
2021/06/23 00:57:27;;;;;;;0.10;0.10;;;15.10;99.90;;;;;;5051529;28;20364;-62
2021/06/23 00:59:55;;;;;;;0.03;0.03;;;15.10;99.90;;;;;;5071313;28;20119;-61
2021/06/23 01:02:22;;;;;;;0.00;0.00;;;15.10;99.90;;;;;;5070310;28;20050;-62
2021/06/23 01:04:50;;;;;;;0.10;0.10;;;15.10;99.90;;;;;;5070171;28;20025;-62
2021/06/23 01:07:20;;;;;;;0.00;0.00;;;15.10;99.90;;;;;;5041327;28;20040;-62
2021/06/23 01:09:46;;;;;;;0.00;0.00;;;15.10;99.90;;;;;;5070387;28;20032;-62
2021/06/23 01:12:44;;;;;;;0.10;0.10;;;15.00;99.90;;;;;;5054512;28;20041;-62
2021/06/23 01:15:13;;;;;;;0.00;0.00;;;15.00;99.90;;;;;;5072759;28;20181;-61
2021/06/23 01:17:39;;;;;;;0.10;0.10;;;14.90;99.90;;;;;;5071891;28;20051;-62
2021/06/23 01:20:10;;;;;;;0.00;0.00;;;14.90;99.90;;;;;;5073454;28;20099;-61
2021/06/23 01:22:39;;;;;;;0.00;0.00;;;15.00;99.90;;;;;;5070594;28;20107;-61
2021/06/23 01:25:09;;;;;;;0.10;0.10;;;14.90;99.90;;;;;;5072783;28;20043;-61
2021/06/23 01:27:35;;;;;;;0.10;0.10;;;15.00;99.90;;;;;;5071768;28;20432;-62
2021/06/23 01:30:03;;;;;;;0.10;0.10;;;15.00;99.90;;;;;;5071273;28;20043;-61
2021/06/23 01:32:33;;;;;;;0.10;0.10;;;15.00;99.90;;;;;;5053547;28;20040;-61
2021/06/23 01:35:00;;;;;;;0.10;0.10;;;15.00;99.90;;;;;;5073978;28;20025;-61
2021/06/23 01:37:25;;;;;;;0.10;0.10;;;15.00;99.90;;;;;;5054498;28;20035;-61
2021/06/23 01:39:51;;;;;;;0.00;0.00;;;15.00;99.90;;;;;;5043081;28;20040;-62
2021/06/23 01:42:19;;;;;;;0.05;0.05;;;15.00;99.90;;;;;;5071289;28;20439;-62
2021/06/23 01:44:47;;;;;;;0.10;0.10;;;15.00;99.90;;;;;;5072347;28;20035;-62
2021/06/23 01:47:13;;;;;;;0.10;0.10;;;15.00;99.90;;;;;;5074451;28;20028;-61
2021/06/23 01:49:40;;;;;;;0.00;0.00;;;14.90;99.90;;;;;;5075522;28;20644;-61
2021/06/23 01:52:06;;;;;;;0.00;0.00;;;15.00;99.90;;;;;;5074262;28;20031;-61
2021/06/23 01:54:39;;;;;;;0.10;0.10;;;14.90;99.90;;;;;;5075648;28;20102;-62
2021/06/23 01:57:08;;;;;;;0.00;0.00;;;14.90;99.90;;;;;;5075504;28;20028;-62
2021/06/23 01:59:34;;;;;;;0.00;0.00;;;15.00;99.90;;;;;;5074171;28;20035;-62
2021/06/23 02:02:18;;;;;;;0.10;0.10;;;14.90;99.90;;;;;;5074831;28;20048;-62
2021/06/23 02:04:52;;;;;;;0.00;0.00;;;14.90;99.90;;;;;;5055215;28;20385;-62
2021/06/23 02:07:41;;;;;;;0.10;0.10;;;14.90;99.90;;;;;;5074717;28;20663;-62
2021/06/23 02:10:44;;;;;;;0.00;0.00;;;14.90;99.90;;;;;;5079710;28;20033;-62
2021/06/23 02:13:28;;;;;;;0.00;0.00;;;14.90;99.90;;;;;;5077691;28;20104;-62
2021/06/23 02:16:05;;;;;;;0.00;0.00;;;15.00;99.90;;;;;;5058240;28;20080;-62
2021/06/23 02:18:33;;;;;;;0.00;0.00;;;15.00;99.90;;;;;;5076905;28;20020;-63
2021/06/23 02:21:02;;;;;;;0.00;0.00;;;15.00;99.90;;;;;;5078849;28;20024;-62
2021/06/23 02:23:29;;;;;;;0.00;0.00;;;15.00;99.90;;;;;;5077684;28;20052;-63
2021/06/23 02:25:55;;;;;;;0.00;0.00;;;15.00;99.90;;;;;;5078360;28;20471;-62
2021/06/23 02:28:21;;;;;;;0.10;0.10;;;14.90;99.90;;;;;;5078030;28;20020;-62
2021/06/23 02:30:52;;;;;;;0.00;0.00;;;14.90;99.90;;;;;;5076847;28;20020;-63
2021/06/23 02:33:21;;;;;;;0.00;0.00;;;14.90;99.90;;;;;;5075468;28;20225;-62
2021/06/23 02:35:48;;;;;;;0.00;0.00;;;14.90;99.90;;;;;;5058497;28;20115;-61
2021/06/23 02:38:13;;;;;;;0.00;0.00;;;14.90;99.90;;;;;;5074373;28;20461;-62
2021/06/23 02:40:42;;;;;;;0.00;0.00;;;14.90;99.90;;;;;;5074407;28;20028;-62
2021/06/23 02:43:08;;;;;;;0.00;0.00;;;14.90;99.90;;;;;;5074536;28;20036;-62
2021/06/23 02:45:34;;;;;;;0.10;0.10;;;14.90;99.90;;;;;;5058675;28;20595;-63
2021/06/23 02:48:00;;;;;;;0.10;0.10;;;15.00;99.90;;;;;;5075764;28;20465;-63
2021/06/23 02:50:33;;;;;;;0.00;0.00;;;15.00;99.90;;;;;;5075805;28;20045;-63
2021/06/23 02:53:00;;;;;;;0.10;0.10;;;14.90;99.90;;;;;;5076357;28;20028;-62
2021/06/23 02:55:27;;;;;;;0.10;0.10;;;14.90;99.90;;;;;;5076345;28;20460;-63
2021/06/23 02:57:54;;;;;;;0.10;0.10;;;14.90;99.90;;;;;;5045291;28;20476;-62
2021/06/23 03:00:20;;;;;;;0.10;0.10;;;14.90;99.90;;;;;;5077085;28;20016;-63
2021/06/23 03:02:50;;;;;;;0.10;0.10;;;14.90;99.90;;;;;;5075113;28;20460;-62
2021/06/23 03:05:16;;;;;;;0.00;0.00;;;14.90;99.90;;;;;;5078221;28;20025;-62
2021/06/23 03:07:47;;;;;;;0.10;0.10;;;14.90;99.90;;;;;;5061278;28;20025;-62
2021/06/23 03:10:15;;;;;;;0.03;0.03;;;14.90;99.90;;;;;;5077039;28;20036;-63
2021/06/23 03:12:41;;;;;;;0.10;0.10;;;14.90;99.90;;;;;;5074001;28;20075;-62
2021/06/23 03:15:08;;;;;;;0.10;0.10;;;14.90;99.90;;;;;;5075720;28;20032;-63
2021/06/23 03:17:33;;;;;;;0.00;0.00;;;14.90;99.90;;;;;;5074708;28;20456;-63
2021/06/23 03:20:07;;;;;;;0.00;0.00;;;14.90;99.90;;;;;;5076096;28;20105;-62
2021/06/23 03:22:33;;;;;;;0.00;0.00;;;14.90;99.90;;;;;;5077551;28;20036;-62
2021/06/23 03:24:59;;;;;;;0.10;0.10;;;14.90;99.90;;;;;;5058476;28;20823;-62
2021/06/23 03:27:24;;;;;;;0.00;0.00;;;14.90;99.90;;;;;;5058690;28;20028;-62
2021/06/23 03:29:50;;;;;;;0.10;0.10;;;14.90;99.90;;;;;;5045831;28;20466;-62
2021/06/23 03:32:16;;;;;;;0.10;0.10;;;14.90;99.90;;;;;;5074331;28;20039;-62
2021/06/23 03:34:44;;;;;;;0.10;0.10;;;14.90;99.90;;;;;;5073078;28;20625;-62
2021/06/23 03:37:10;;;;;;;0.10;0.10;;;14.90;99.90;;;;;;5072581;28;20063;-62
2021/06/23 03:39:36;;;;;;;0.10;0.10;;;14.90;99.90;;;;;;5074140;28;20090;-62
2021/06/23 03:42:05;;;;;;;0.00;0.00;;;14.90;99.90;;;;;;5058219;28;20050;-63
2021/06/23 03:44:34;;;;;;;0.10;0.10;;;14.90;99.90;;;;;;5071312;28;20457;-62
2021/06/23 03:47:01;;;;;;;0.10;0.10;;;14.90;99.90;;;;;;5071749;28;20024;-62
2021/06/23 03:49:27;;;;;;;0.03;0.03;;;14.90;99.90;;;;;;5074700;28;20023;-62
2021/06/23 03:51:53;;;;;;;0.03;0.03;;;14.80;99.90;;;;;;5056923;28;20035;-62
2021/06/23 03:54:22;;;;;;;0.10;0.10;;;14.80;99.90;;;;;;5053028;28;20492;-62
2021/06/23 03:56:48;;;;;;;0.10;0.10;;;14.80;99.90;;;;;;5071966;28;20032;-62
2021/06/23 03:59:14;;;;;;;0.10;0.10;;;14.80;99.90;;;;;;5073335;28;20116;-62
2021/06/23 04:01:39;;;;;;;0.10;0.10;;;14.80;99.90;;;;;;5056151;28;20032;-63
2021/06/23 04:04:07;;;;;;;0.00;0.00;;;14.80;99.90;;;;;;5072320;28;20035;-62
2021/06/23 04:06:33;;;;;;;0.10;0.10;;;14.80;99.90;;;;;;5043263;28;20472;-62
2021/06/23 04:08:59;;;;;;;0.00;0.00;;;14.80;99.90;;;;;;5073249;28;20035;-63
2021/06/23 04:11:26;;;;;;;0.10;0.10;;;14.80;99.90;;;;;;5073550;28;20104;-62
2021/06/23 04:13:52;;;;;;;0.10;0.10;;;14.90;99.90;;;;;;5072073;28;20024;-62
2021/06/23 04:16:19;;;;;;;0.10;0.10;;;14.90;99.90;;;;;;5051199;28;20068;-62
2021/06/23 04:18:47;;;;;;;0.10;0.10;;;14.90;99.90;;;;;;5052461;28;20032;-62
2021/06/23 04:21:15;;;;;;;0.10;0.10;;;14.90;99.90;;;;;;5052135;28;20091;-63
2021/06/23 04:23:41;;;;;;;0.00;0.00;;;14.90;99.90;;;;;;5053662;28;20108;-62
2021/06/23 04:26:07;;;;;;;0.10;0.10;;;14.90;99.90;;;;;;5049963;28;20107;-62
2021/06/23 04:28:35;;;;;;;0.03;0.03;;;14.90;99.90;;;;;;5050263;28;20288;-63
2021/06/23 04:31:03;;;;;;;0.03;0.03;;;14.90;99.90;;;;;;5053659;28;20082;-62
2021/06/23 04:33:28;;;;;;;0.00;0.00;;;15.00;99.90;;;;;;5052479;28;20493;-62
2021/06/23 04:35:55;;;;;;;0.10;0.10;;;15.10;99.90;;;;;;5053050;28;20029;-62
2021/06/23 04:38:21;;;;;;;0.10;0.10;;;15.10;99.90;;;;;;5052680;28;20040;-63
2021/06/23 04:40:47;;;;;;;0.00;0.00;;;15.10;99.90;;;;;;5036307;28;20247;-63
2021/06/23 04:43:13;;;;;;;0.10;0.10;;;15.10;99.90;;;;;;5051510;28;20040;-62
2021/06/23 04:45:43;;;;;;;0.10;0.10;;;15.10;99.90;;;;;;5050263;28;20033;-62
2021/06/23 04:48:11;;;;;;;0.10;0.10;;;15.10;99.90;;;;;;5024172;28;20174;-62
2021/06/23 04:50:39;;;;;;;0.10;0.10;;;15.10;99.90;;;;;;5034662;28;20115;-62
2021/06/23 04:53:08;;;;;;;0.10;0.10;;;15.10;99.90;;;;;;5051924;28;20043;-62
2021/06/23 04:55:36;;;;;;;0.10;0.10;;;15.10;99.90;;;;;;5053326;28;20029;-62
2021/06/23 04:58:04;;;;;;;0.10;0.10;;;15.00;99.90;;;;;;5052775;28;20020;-63
2021/06/23 05:00:30;;;;;;;0.10;0.10;;;15.10;99.90;;;;;;5036137;28;20025;-62
2021/06/23 05:02:55;;;;;;;0.10;0.10;;;15.10;99.90;;;;;;5051779;28;20025;-62
2021/06/23 05:05:21;;;;;;;0.03;0.03;;;15.10;99.90;;;;;;5029838;28;20082;-62
2021/06/23 05:07:46;;;;;;;0.03;0.03;;;15.10;99.90;;;;;;5053481;28;20031;-62
2021/06/23 05:10:12;;;;;;;0.00;0.00;;;15.10;99.90;;;;;;5034154;28;20120;-62
2021/06/23 05:12:38;;;;;;;0.10;0.10;;;15.20;99.90;;;;;;5050298;28;20041;-63
2021/06/23 05:15:07;;;;;;;0.10;0.10;;;15.30;99.90;;;;;;5037246;28;20043;-63
2021/06/23 05:17:32;;;;;;;0.10;0.10;;;15.30;99.90;;;;;;5051967;28;20037;-63
2021/06/23 05:20:01;;;;;;;0.10;0.10;;;15.30;99.90;;;;;;5052847;28;20386;-63
2021/06/23 05:22:26;;;;;;;0.10;0.10;;;15.40;99.90;;;;;;5050014;28;20025;-63
2021/06/23 05:24:55;;;;;;;0.10;0.10;;;15.40;99.90;;;;;;5050446;28;20028;-62
2021/06/23 05:27:23;;;;;;;0.10;0.10;;;15.50;99.90;;;;;;5051560;28;20052;-63
2021/06/23 05:29:49;;;;;;;0.10;0.10;;;15.50;99.90;;;;;;5052487;28;20045;-63
2021/06/23 05:32:15;;;;;;;0.10;0.10;;;15.40;99.90;;;;;;5050697;28;20107;-63
2021/06/23 05:34:43;;;;;;;0.00;0.00;;;15.50;99.90;;;;;;5035611;28;20064;-63
2021/06/23 05:37:08;;;;;;;0.10;0.10;;;15.60;99.90;;;;;;5051597;28;20469;-63
2021/06/23 05:39:34;;;;;;;0.10;0.10;;;15.60;99.90;;;;;;5052057;28;20052;-63
2021/06/23 05:42:00;;;;;;;0.00;0.00;;;15.60;99.90;;;;;;5056176;28;20030;-63
2021/06/23 05:44:25;;;;;;;0.10;0.10;;;15.70;99.90;;;;;;5055361;28;20045;-62
2021/06/23 05:46:51;;;;;;;0.10;0.10;;;15.70;99.90;;;;;;5026502;28;20054;-63
2021/06/23 05:49:17;;;;;;;0.10;0.10;;;15.70;99.90;;;;;;5054048;28;20037;-62
2021/06/23 05:51:43;;;;;;;0.10;0.10;;;15.70;99.90;;;;;;5053206;28;20606;-62
2021/06/23 05:54:08;;;;;;;0.03;0.03;;;15.80;99.90;;;;;;5036390;28;20115;-62
2021/06/23 05:56:34;;;;;;;0.10;0.10;;;15.90;99.90;;;;;;5037894;28;20017;-63
2021/06/23 05:58:59;;;;;;;0.05;0.05;;;15.90;99.90;;;;;;5055995;28;20021;-64
2021/06/23 06:01:25;;;;;;;2.20;2.10;;;15.80;99.90;;;;;;5024261;28;20044;-63
2021/06/23 06:03:53;;;;;;;0.10;0.10;;;15.80;99.90;;;;;;5054671;28;20037;-63
2021/06/23 06:06:19;;;;;;;0.10;0.10;;;15.80;99.90;;;;;;5024774;28;20036;-63
2021/06/23 06:08:44;;;;;;;0.10;0.10;;;16.00;99.90;;;;;;5053220;28;20029;-63
2021/06/23 06:11:10;;;;;;;0.05;0.05;;;16.10;99.90;;;;;;5053513;28;20029;-62
2021/06/23 06:13:36;;;;;;;0.10;0.10;;;16.20;99.90;;;;;;5056193;28;20047;-62
2021/06/23 06:16:01;;;;;;;0.10;0.10;;;16.10;99.90;;;;;;5052625;28;20032;-61
2021/06/23 06:18:29;;;;;;;0.10;0.10;;;16.10;99.90;;;;;;5054357;28;20121;-62
2021/06/23 06:20:57;;;;;;;0.10;0.10;;;16.00;99.90;;;;;;5056025;28;20025;-62
2021/06/23 06:23:25;;;;;;;0.13;0.13;;;16.00;99.90;;;;;;5054094;28;20036;-63
2021/06/23 06:25:56;;;;;;;0.10;0.10;;;15.90;99.90;;;;;;5037765;28;20029;-62
2021/06/23 06:28:26;;;;;;;0.10;0.10;;;15.90;99.90;;;;;;5054636;28;20047;-62
2021/06/23 06:30:51;;;;;;;0.10;0.10;;;15.90;99.90;;;;;;5054681;28;20635;-62
2021/06/23 06:33:17;;;;;;;0.20;0.20;;;15.90;99.90;;;;;;5053788;28;20111;-62
2021/06/23 06:35:43;;;;;;;0.10;0.10;;;15.90;99.90;;;;;;5055635;28;20069;-64
2021/06/23 06:38:08;;;;;;;0.10;0.10;;;15.90;99.90;;;;;;5035316;28;20028;-62
2021/06/23 06:40:36;;;;;;;0.10;0.10;;;15.90;99.90;;;;;;5055474;28;20032;-63
2021/06/23 06:43:02;;;;;;;0.47;0.47;;;15.90;99.90;;;;;;5053978;28;20102;-62
2021/06/23 06:45:28;;;;;;;0.10;0.10;;;15.80;99.90;;;;;;5037301;28;20132;-61
2021/06/23 06:47:54;;;;;;;0.10;0.10;;;15.80;99.90;;;;;;5036613;28;20049;-61
2021/06/23 06:50:19;;;;;;;0.10;0.10;;;15.80;99.90;;;;;;5035335;28;20033;-62
2021/06/23 06:52:45;;;;;;;0.10;0.10;;;15.80;99.90;;;;;;5054237;28;20607;-62
2021/06/23 06:55:20;;;;;;;0.03;0.03;;;15.80;99.90;;;;;;5035371;28;20021;-61
2021/06/23 06:57:50;;;;;;;0.10;0.10;;;15.80;99.90;;;;;;5052692;28;20040;-61
2021/06/23 07:00:19;;;;;;;0.10;0.10;;;15.70;99.90;;;;;;5054344;28;20052;-61
2021/06/23 07:02:45;;;;;;;0.10;0.10;;;15.70;99.90;;;;;;5053560;28;20465;-61
2021/06/23 07:05:13;;;;;;;0.10;0.10;;;15.70;99.90;;;;;;5054669;28;20489;-61
2021/06/23 07:07:44;;;;;;;0.00;0.00;;;15.70;99.90;;;;;;5052976;28;20474;-62
2021/06/23 07:10:10;;;;;;;0.10;0.10;;;15.80;99.90;;;;;;5052194;28;20504;-62
2021/06/23 07:12:38;;;;;;;0.10;0.10;;;15.80;99.90;;;;;;5021845;28;20063;-62
2021/06/23 07:15:04;;;;;;;0.10;0.10;;;15.80;99.90;;;;;;5052875;28;20112;-62
2021/06/23 07:17:30;;;;;;;0.10;0.10;;;15.90;99.90;;;;;;5053399;28;20509;-62
2021/06/23 07:19:58;;;;;;;0.10;0.10;;;15.90;99.90;;;;;;5036737;28;20033;-62
2021/06/23 07:22:26;;;;;;;0.10;0.10;;;15.90;99.90;;;;;;5052233;28;20036;-60
2021/06/23 07:24:54;;;;;;;0.10;0.10;;;16.00;99.90;;;;;;5034709;28;20040;-62
2021/06/23 07:27:21;;;;;;;0.00;0.00;;;16.10;99.90;;;;;;5027557;28;20473;-62
2021/06/23 07:29:49;;;;;;;0.10;0.10;;;16.10;99.90;;;;;;5036544;28;20024;-62
2021/06/23 07:32:30;;;;;;;0.10;0.10;;;16.20;99.90;;;;;;5033614;28;20382;-62
2021/06/23 07:37:40;;;;;;;0.10;0.10;;;16.20;99.90;;;;;;5053523;28;20040;-61
2021/06/23 07:40:06;;;;;;;0.10;0.10;;;16.30;99.90;;;;;;5054464;28;20718;-61
2021/06/23 07:42:32;;;;;;;0.00;0.00;;;16.30;99.90;;;;;;5031850;28;20047;-62
2021/06/23 07:45:03;;;;;;;0.10;0.10;;;16.30;99.90;;;;;;5053605;28;20453;-62
2021/06/23 07:47:32;;;;;;;0.03;0.03;;;16.30;99.90;;;;;;5022401;28;20569;-62
2021/06/23 07:50:00;;;;;;;0.10;0.10;;;16.40;99.90;;;;;;5051732;28;20087;-61
2021/06/23 07:52:32;;;;;;;0.00;0.00;;;16.40;99.90;;;;;;5053314;28;20139;-62
2021/06/23 08:09:06;;;;;;;0.10;0.10;;;16.50;99.90;;;;;;5054513;28;20071;-63
2021/06/23 08:11:25;;;;;;;0.08;0.08;;;16.50;99.90;;;;;;5047983;28;20036;-64
2021/06/23 08:13:51;;;;;;;0.10;0.10;;;16.60;99.90;;;;;;5052764;28;20032;-63
2021/06/23 08:16:17;;;;;;;0.10;0.10;;;16.70;99.90;;;;;;5052719;28;20028;-63
2021/06/23 08:18:45;;;;;;;0.10;0.10;;;16.80;99.90;;;;;;5051855;28;20711;-63
2021/06/23 08:21:11;;;;;;;0.10;0.10;;;16.80;99.90;;;;;;5051504;28;20029;-63
2021/06/23 08:23:37;;;;;;;0.10;0.10;;;16.90;99.90;;;;;;5042275;28;20535;-63
2021/06/23 08:26:03;;;;;;;0.10;0.10;;;16.90;99.90;;;;;;5033327;28;20025;-64
2021/06/23 08:28:28;;;;;;;0.10;0.10;;;17.00;99.90;;;;;;5050872;28;20127;-63
2021/06/23 08:30:54;;;;;;;0.00;0.00;;;17.20;99.90;;;;;;5052299;28;20276;-63
2021/06/23 08:33:25;;;;;;;0.00;0.00;;;17.30;99.90;;;;;;5051542;28;20024;-63
2021/06/23 08:35:51;;;;;;;0.00;0.00;;;17.30;99.90;;;;;;5051308;28;20098;-63
2021/06/23 08:38:16;;;;;;;0.03;0.03;;;17.30;99.90;;;;;;5051909;28;20017;-63
2021/06/23 08:40:43;;;;;;;0.00;0.00;;;17.40;99.90;;;;;;5032213;28;20114;-63
2021/06/23 08:43:13;;;;;;;0.10;0.10;;;17.40;99.90;;;;;;5049431;28;20042;-62
2021/06/23 08:45:39;;;;;;;0.00;0.00;;;17.50;99.90;;;;;;5038755;28;20040;-63
2021/06/23 08:48:05;;;;;;;0.20;0.20;;;17.50;99.90;;;;;;5053157;28;20020;-63
2021/06/23 08:50:31;;;;;;;0.00;0.00;;;17.50;99.90;;;;;;5051400;28;20139;-62
2021/06/23 08:52:56;;;;;;;0.00;0.00;;;17.60;99.90;;;;;;5033294;28;20025;-63
2021/06/23 08:55:23;;;;;;;0.00;0.00;;;17.60;99.90;;;;;;5051613;28;20104;-63
2021/06/23 08:57:52;;;;;;;0.00;0.00;;;17.70;99.90;;;;;;5051489;28;20028;-63
2021/06/23 09:00:19;;;;;;;0.00;0.00;;;17.70;99.90;;;;;;5052070;28;20029;-63
2021/06/23 09:02:45;;;;;;;0.00;0.00;;;17.70;99.90;;;;;;5052149;28;20472;-63
2021/06/23 09:05:13;;;;;;;0.00;0.00;;;17.60;99.90;;;;;;5024303;28;20037;-63
2021/06/23 09:07:59;;;;;;;0.10;0.10;;;17.60;99.90;;;;;;5052672;28;20491;-63
2021/06/23 09:10:28;;;;;;;0.00;0.00;;;17.70;99.90;;;;;;5024147;28;20038;-63
2021/06/23 09:13:06;;;;;;;0.00;0.00;;;17.90;99.90;;;;;;5024677;28;20378;-64
2021/06/23 09:15:49;;;;;;;0.00;0.00;;;18.10;99.90;;;;;;5058102;28;20075;-64
2021/06/23 09:18:28;;;;;;;0.10;0.10;;;18.20;99.90;;;;;;5059212;28;20457;-63
2021/06/23 09:21:04;;;;;;;0.00;0.00;;;18.20;99.90;;;;;;5042760;28;20068;-64
2021/06/23 09:23:51;;;;;;;0.00;0.00;;;18.20;99.90;;;;;;5058543;28;20033;-64
2021/06/23 09:26:21;;;;;;;0.00;0.00;;;18.30;99.90;;;;;;5058208;28;20120;-64
2021/06/23 09:29:23;;;;;;;0.00;0.00;;;18.40;99.90;;;;;;5056116;28;20405;-63
2021/06/23 09:32:02;;;;;;;0.00;0.00;;;18.50;99.90;;;;;;4955242;28;20062;-63
2021/06/23 09:34:42;;;;;;;0.00;0.00;;;18.30;99.90;;;;;;5030584;28;20366;-62
2021/06/23 09:37:28;;;;;;;0.00;0.00;;;18.10;99.90;;;;;;5040580;28;20766;-63
2021/06/23 09:40:24;;;;;;;0.00;0.00;;;18.00;99.90;;;;;;5041637;28;20098;-63
2021/06/23 09:43:00;;;;;;;0.00;0.00;;;18.10;99.90;;;;;;5035337;28;20109;-63
2021/06/23 09:45:29;;;;;;;0.00;0.00;;;18.20;99.90;;;;;;5044664;28;20044;-63
2021/06/23 09:48:06;;;;;;;0.00;0.00;;;18.30;99.90;;;;;;5058830;28;20029;-63
2021/06/23 09:50:33;;;;;;;0.00;0.00;;;18.40;99.90;;;;;;5057311;28;20032;-63
2021/06/23 09:53:13;;;;;;;0.00;0.00;;;18.60;99.90;;;;;;5056494;28;20029;-64
2021/06/23 09:55:40;;;;;;;0.00;0.00;;;18.90;99.90;;;;;;5042839;28;20125;-63
2021/06/23 09:58:13;;;;;;;0.00;0.00;;;19.00;99.90;;;;;;5026740;28;20120;-63
2021/06/23 10:01:00;;;;;;;0.00;0.00;;;19.10;99.90;;;;;;5057826;28;20036;-64
2021/06/23 10:03:30;;;;;;;0.00;0.00;;;19.00;99.90;;;;;;5044531;28;20025;-63
2021/06/23 10:05:59;;;;;;;0.00;0.00;;;19.00;99.90;;;;;;5056704;28;20059;-63
2021/06/23 10:08:29;;;;;;;0.00;0.00;;;18.90;99.90;;;;;;5034169;28;20521;-62
2021/06/23 10:10:55;;;;;;;0.00;0.00;;;18.70;99.90;;;;;;5056350;28;20028;-64
2021/06/23 10:13:23;;;;;;;0.00;0.00;;;18.80;99.90;;;;;;5056369;28;20070;-63
2021/06/23 10:15:49;;;;;;;0.00;0.00;;;18.90;99.90;;;;;;5038930;28;20059;-64
2021/06/23 10:18:19;;;;;;;0.00;0.00;;;19.10;99.90;;;;;;5056016;28;20029;-64
2021/06/23 10:20:47;;;;;;;0.00;0.00;;;19.40;99.90;;;;;;5059080;28;20369;-63
2021/06/23 10:23:13;;;;;;;0.00;0.00;;;19.80;99.90;;;;;;5057967;28;20024;-64
2021/06/23 10:25:40;;;;;;;0.00;0.00;;;19.90;99.90;;;;;;5055338;28;20036;-63
2021/06/23 10:28:06;;;;;;;0.00;0.00;;;20.10;99.90;;;;;;5053890;28;20033;-63
2021/06/23 10:30:34;;;;;;;0.00;0.00;;;20.20;99.90;;;;;;5036807;28;20029;-64
2021/06/23 10:33:03;;;;;;;0.00;0.00;;;20.30;99.90;;;;;;5052771;28;20055;-64
2021/06/23 10:35:29;;;;;;;0.00;0.00;;;20.00;99.90;;;;;;5052649;28;20523;-64
2021/06/23 10:37:56;;;;;;;0.00;0.00;;;19.80;99.90;;;;;;5052206;28;20104;-64
2021/06/23 10:40:24;;;;;;;0.00;0.00;;;19.50;99.90;;;;;;5050030;28;20155;-65
2021/06/23 10:42:52;;;;;;;0.00;0.00;;;19.40;99.90;;;;;;5053688;28;20111;-63
2021/06/23 10:45:18;;;;;;;0.00;0.00;;;19.30;99.90;;;;;;5054368;28;20424;-64
2021/06/23 10:47:49;;;;;;;0.00;0.00;;;19.40;99.90;;;;;;5051363;28;20134;-64
2021/06/23 10:50:28;;;;;;;0.00;0.00;;;19.50;99.90;;;;;;5054796;28;20028;-63
2021/06/23 10:52:54;;;;;;;0.00;0.00;;;19.40;99.90;;;;;;5052528;28;20523;-64
2021/06/23 10:55:20;;;;;;;0.00;0.00;;;19.30;99.90;;;;;;5052004;28;20033;-64
2021/06/23 10:57:49;;;;;;;0.00;0.00;;;19.20;99.90;;;;;;5053675;28;20020;-63
2021/06/23 11:00:17;;;;;;;0.00;0.00;;;19.30;99.90;;;;;;5054561;28;20053;-64
2021/06/23 11:02:58;;;;;;;0.00;0.00;;;19.40;99.90;;;;;;5054482;28;20044;-63
2021/06/23 11:05:32;;;;;;;0.10;0.10;;;19.40;99.90;;;;;;5054164;28;20037;-63
2021/06/23 11:07:58;;;;;;;0.00;0.00;;;19.40;99.90;;;;;;5052328;28;20040;-63
2021/06/23 11:10:42;;;;;;;0.00;0.00;;;19.40;99.90;;;;;;5053210;28;20079;-64
2021/06/23 11:13:15;;;;;;;0.00;0.00;;;19.40;99.90;;;;;;5053575;28;20097;-63
2021/06/23 11:15:42;;;;;;;0.00;0.00;;;19.60;99.90;;;;;;5053436;28;20115;-63
2021/06/23 11:18:32;;;;;;;0.00;0.00;;;19.70;99.90;;;;;;5055109;28;20013;-64
2021/06/23 11:21:22;;;;;;;0.00;0.00;;;19.70;99.90;;;;;;5043047;28;20021;-64
2021/06/23 11:24:01;;;;;;;0.00;0.00;;;19.80;99.90;;;;;;5036471;28;20350;-65
2021/06/23 11:26:29;;;;;;;0.00;0.00;;;19.80;99.90;;;;;;5052631;28;20574;-64
2021/06/23 11:28:57;;;;;;;0.00;0.00;;;19.80;99.90;;;;;;5053466;28;20113;-63
2021/06/23 11:31:41;;;;;;;0.00;0.00;;;19.90;99.90;;;;;;5053026;28;20339;-64
2021/06/23 11:34:07;;;;;;;0.00;0.00;;;20.20;99.90;;;;;;5051170;28;20025;-64
2021/06/23 11:36:35;;;;;;;0.00;0.00;;;20.30;99.90;;;;;;5050968;28;20025;-63
2021/06/23 11:39:02;;;;;;;0.00;0.00;;;20.50;99.90;;;;;;5052137;28;20031;-62
2021/06/23 11:41:28;;;;;;;0.00;0.00;;;20.90;99.90;;;;;;5053255;28;20040;-63
2021/06/23 11:43:54;;;;;;;0.00;0.00;;;21.50;99.90;;;;;;5051796;28;20365;-63
2021/06/23 11:46:19;;;;;;;0.00;0.00;;;22.00;99.90;;;;;;5053407;28;20382;-64
2021/06/23 11:48:45;;;;;;;0.00;0.00;;;22.70;99.90;;;;;;5034074;28;20021;-63
2021/06/23 11:51:13;;;;;;;0.00;0.00;;;23.60;98.40;;;;;;5035662;28;20457;-64
2021/06/23 11:53:40;;;;;;;0.00;0.00;;;24.40;95.90;;;;;;5054363;28;20389;-64
2021/06/23 11:56:06;;;;;;;0.00;0.00;;;25.20;93.00;;;;;;5053354;28;20029;-64
2021/06/23 11:58:34;;;;;;;0.00;0.00;;;25.30;90.60;;;;;;5053763;28;20016;-63
2021/06/23 12:01:05;;;;;;;0.00;0.00;;;24.60;91.30;;;;;;5053240;28;20087;-64
2021/06/23 12:03:30;;;;;;;0.00;0.00;;;23.90;92.80;;;;;;5051835;28;20035;-63
2021/06/23 12:05:56;;;;;;;0.00;0.00;;;23.50;93.90;;;;;;5051920;28;20033;-64
2021/06/23 12:08:22;;;;;;;0.00;0.00;;;23.10;95.30;;;;;;5052649;28;20025;-64
2021/06/23 12:10:52;;;;;;;0.05;0.05;;;22.70;96.20;;;;;;5052277;28;20093;-64
2021/06/23 12:13:18;;;;;;;0.00;0.00;;;22.30;97.00;;;;;;5051492;28;20048;-63
2021/06/23 12:15:44;;;;;;;0.00;0.00;;;22.00;98.60;;;;;;5037629;28;20029;-64
2021/06/23 12:18:10;;;;;;;0.00;0.00;;;21.50;99.30;;;;;;5052458;28;20450;-63
2021/06/23 12:20:40;;;;;;;0.00;0.00;;;21.30;99.90;;;;;;5052341;28;20210;-63
2021/06/23 12:23:08;;;;;;;0.00;0.00;;;21.10;99.90;;;;;;5050479;28;20083;-63
2021/06/23 12:25:44;;;;;;;0.00;0.00;;;21.00;99.90;;;;;;5052062;28;20060;-63
2021/06/23 12:28:11;;;;;;;0.00;0.00;;;21.00;99.90;;;;;;5040710;28;20028;-63
2021/06/23 12:30:39;;;;;;;0.00;0.00;;;21.20;99.90;;;;;;5033768;28;20035;-63
2021/06/23 12:33:10;;;;;;;0.00;0.00;;;21.10;99.90;;;;;;5054335;28;20032;-63
2021/06/23 12:35:43;;;;;;;0.00;0.00;;;21.20;99.90;;;;;;5053017;28;20024;-64
2021/06/23 12:38:11;;;;;;;0.00;0.00;;;21.30;99.90;;;;;;5052174;28;20039;-63
2021/06/23 12:40:37;;;;;;;0.00;0.00;;;21.20;99.90;;;;;;5010335;28;20029;-64
2021/06/23 12:43:09;;;;;;;0.00;0.00;;;21.40;99.90;;;;;;5054571;28;20445;-64
2021/06/23 12:45:38;;;;;;;0.00;0.00;;;22.00;99.90;;;;;;5054367;28;20441;-63
2021/06/23 12:48:05;;;;;;;0.00;0.00;;;22.40;99.80;;;;;;5051100;28;20084;-62
2021/06/23 12:50:31;;;;;;;0.22;0.22;;;22.80;98.50;;;;;;5051998;28;20025;-63
2021/06/23 12:52:59;;;;;;;0.00;0.00;;;22.80;97.20;;;;;;5051021;28;20464;-63
2021/06/23 12:55:24;;;;;;;0.00;0.00;;;22.80;96.80;;;;;;5050837;28;20033;-63
2021/06/23 12:57:52;;;;;;;0.00;0.00;;;23.20;96.60;;;;;;5035910;28;20031;-63
2021/06/23 13:00:20;;;;;;;0.10;0.10;;;23.60;95.30;;;;;;5051490;28;20036;-64
2021/06/23 13:02:48;;;;;;;0.00;0.00;;;24.20;94.50;;;;;;5053118;28;20043;-63
2021/06/23 13:05:16;;;;;;;0.10;0.10;;;24.70;93.20;;;;;;5050537;28;20398;-63
2021/06/23 13:07:43;;;;;;;0.00;0.00;;;;;;;;;;5052008;28;20349;-63
2021/06/23 13:10:14;;;;;;;0.00;0.00;;;27.70;77.40;;;;;;5051965;28;20024;-63
2021/06/23 13:12:39;;;;;;;0.00;0.00;;;27.10;76.70;;;;;;5051207;28;20138;-64